sensor_id;sensor_type;location;lat;lon;timestamp;P1;durP1;ratioP1;P2;durP2;ratioP2
14611;SDS011;7392;52.078;11.650;2023-08-17T00:00:28;1.23;;;1.10;;
14611;SDS011;7392;52.078;11.650;2023-08-17T00:02:57;1.30;;;1.20;;
14611;SDS011;7392;52.078;11.650;2023-08-17T00:05:25;1.30;;;1.20;;
14611;SDS011;7392;52.078;11.650;2023-08-17T00:07:53;1.33;;;1.23;;
14611;SDS011;7392;52.078;11.650;2023-08-17T00:10:21;1.27;;;1.17;;
14611;SDS011;7392;52.078;11.650;2023-08-17T00:12:49;1.23;;;1.13;;
14611;SDS011;7392;52.078;11.650;2023-08-17T00:15:17;1.30;;;1.20;;
14611;SDS011;7392;52.078;11.650;2023-08-17T00:17:45;1.23;;;1.13;;
14611;SDS011;7392;52.078;11.650;2023-08-17T00:20:15;1.40;;;1.30;;
14611;SDS011;7392;52.078;11.650;2023-08-17T00:22:43;1.33;;;1.23;;
14611;SDS011;7392;52.078;11.650;2023-08-17T00:25:11;1.50;;;1.33;;
14611;SDS011;7392;52.078;11.650;2023-08-17T00:27:39;1.50;;;1.40;;
14611;SDS011;7392;52.078;11.650;2023-08-17T00:30:07;1.50;;;1.40;;
14611;SDS011;7392;52.078;11.650;2023-08-17T00:32:36;1.63;;;1.40;;
14611;SDS011;7392;52.078;11.650;2023-08-17T00:35:04;1.50;;;1.40;;
14611;SDS011;7392;52.078;11.650;2023-08-17T00:37:34;1.37;;;1.27;;
14611;SDS011;7392;52.078;11.650;2023-08-17T00:40:02;1.53;;;1.43;;
14611;SDS011;7392;52.078;11.650;2023-08-17T00:42:30;1.47;;;1.37;;
14611;SDS011;7392;52.078;11.650;2023-08-17T00:44:58;1.57;;;1.47;;
14611;SDS011;7392;52.078;11.650;2023-08-17T00:47:26;1.50;;;1.40;;
14611;SDS011;7392;52.078;11.650;2023-08-17T00:49:54;1.37;;;1.27;;
14611;SDS011;7392;52.078;11.650;2023-08-17T00:52:23;1.40;;;1.30;;
14611;SDS011;7392;52.078;11.650;2023-08-17T00:54:52;1.70;;;1.60;;
14611;SDS011;7392;52.078;11.650;2023-08-17T00:57:23;1.87;;;1.70;;
14611;SDS011;7392;52.078;11.650;2023-08-17T00:59:51;1.60;;;1.50;;
14611;SDS011;7392;52.078;11.650;2023-08-17T01:02:31;1.70;;;1.50;;
14611;SDS011;7392;52.078;11.650;2023-08-17T01:04:59;1.50;;;1.40;;
14611;SDS011;7392;52.078;11.650;2023-08-17T01:07:27;1.60;;;1.43;;
14611;SDS011;7392;52.078;11.650;2023-08-17T01:09:57;1.73;;;1.63;;
14611;SDS011;7392;52.078;11.650;2023-08-17T01:12:28;1.70;;;1.60;;
14611;SDS011;7392;52.078;11.650;2023-08-17T01:15:00;1.60;;;1.50;;
14611;SDS011;7392;52.078;11.650;2023-08-17T01:17:36;1.70;;;1.57;;
14611;SDS011;7392;52.078;11.650;2023-08-17T01:20:08;1.80;;;1.70;;
14611;SDS011;7392;52.078;11.650;2023-08-17T01:22:39;1.60;;;1.50;;
14611;SDS011;7392;52.078;11.650;2023-08-17T01:25:10;2.83;;;1.90;;
14611;SDS011;7392;52.078;11.650;2023-08-17T01:27:39;1.67;;;1.50;;
14611;SDS011;7392;52.078;11.650;2023-08-17T01:30:10;1.67;;;1.57;;
14611;SDS011;7392;52.078;11.650;2023-08-17T01:32:40;1.60;;;1.50;;
14611;SDS011;7392;52.078;11.650;2023-08-17T01:35:14;1.60;;;1.50;;
14611;SDS011;7392;52.078;11.650;2023-08-17T01:37:49;1.60;;;1.50;;
14611;SDS011;7392;52.078;11.650;2023-08-17T01:40:19;1.70;;;1.60;;
14611;SDS011;7392;52.078;11.650;2023-08-17T01:42:48;1.77;;;1.67;;
14611;SDS011;7392;52.078;11.650;2023-08-17T01:45:24;1.93;;;1.70;;
14611;SDS011;7392;52.078;11.650;2023-08-17T01:48:01;1.80;;;1.70;;
14611;SDS011;7392;52.078;11.650;2023-08-17T01:50:40;2.23;;;2.07;;
14611;SDS011;7392;52.078;11.650;2023-08-17T01:53:13;2.20;;;2.00;;
14611;SDS011;7392;52.078;11.650;2023-08-17T01:55:44;2.07;;;1.87;;
14611;SDS011;7392;52.078;11.650;2023-08-17T01:58:14;2.00;;;1.80;;
14611;SDS011;7392;52.078;11.650;2023-08-17T02:00:44;1.87;;;1.67;;
14611;SDS011;7392;52.078;11.650;2023-08-17T02:03:23;2.00;;;1.90;;
14611;SDS011;7392;52.078;11.650;2023-08-17T02:06:02;1.90;;;1.67;;
14611;SDS011;7392;52.078;11.650;2023-08-17T02:08:45;2.10;;;1.77;;
14611;SDS011;7392;52.078;11.650;2023-08-17T02:11:15;1.80;;;1.70;;
14611;SDS011;7392;52.078;11.650;2023-08-17T02:13:45;1.60;;;1.50;;
14611;SDS011;7392;52.078;11.650;2023-08-17T02:16:14;1.70;;;1.60;;
14611;SDS011;7392;52.078;11.650;2023-08-17T02:18:42;2.00;;;1.73;;
14611;SDS011;7392;52.078;11.650;2023-08-17T02:21:10;2.23;;;1.60;;
14611;SDS011;7392;52.078;11.650;2023-08-17T02:23:38;2.90;;;2.70;;
14611;SDS011;7392;52.078;11.650;2023-08-17T02:26:06;5.77;;;3.40;;
14611;SDS011;7392;52.078;11.650;2023-08-17T02:28:35;4.40;;;3.80;;
14611;SDS011;7392;52.078;11.650;2023-08-17T02:31:05;3.93;;;3.40;;
14611;SDS011;7392;52.078;11.650;2023-08-17T02:33:33;3.40;;;3.10;;
14611;SDS011;7392;52.078;11.650;2023-08-17T02:36:04;3.27;;;3.03;;
14611;SDS011;7392;52.078;11.650;2023-08-17T02:38:33;4.37;;;3.70;;
14611;SDS011;7392;52.078;11.650;2023-08-17T02:41:01;3.43;;;3.10;;
14611;SDS011;7392;52.078;11.650;2023-08-17T02:43:29;3.43;;;3.13;;
14611;SDS011;7392;52.078;11.650;2023-08-17T02:45:58;3.00;;;2.80;;
14611;SDS011;7392;52.078;11.650;2023-08-17T02:48:26;2.73;;;2.53;;
14611;SDS011;7392;52.078;11.650;2023-08-17T02:50:57;3.50;;;2.30;;
14611;SDS011;7392;52.078;11.650;2023-08-17T02:53:24;2.40;;;2.20;;
14611;SDS011;7392;52.078;11.650;2023-08-17T02:55:52;2.50;;;2.30;;
14611;SDS011;7392;52.078;11.650;2023-08-17T02:58:20;1.97;;;1.87;;
14611;SDS011;7392;52.078;11.650;2023-08-17T03:00:50;1.83;;;1.73;;
14611;SDS011;7392;52.078;11.650;2023-08-17T03:03:21;1.93;;;1.83;;
14611;SDS011;7392;52.078;11.650;2023-08-17T03:05:49;1.80;;;1.70;;
14611;SDS011;7392;52.078;11.650;2023-08-17T03:08:16;1.70;;;1.60;;
14611;SDS011;7392;52.078;11.650;2023-08-17T03:10:44;1.73;;;1.63;;
14611;SDS011;7392;52.078;11.650;2023-08-17T03:13:12;1.60;;;1.50;;
14611;SDS011;7392;52.078;11.650;2023-08-17T03:15:40;1.70;;;1.60;;
14611;SDS011;7392;52.078;11.650;2023-08-17T03:18:08;1.40;;;1.30;;
14611;SDS011;7392;52.078;11.650;2023-08-17T03:20:38;1.60;;;1.50;;
14611;SDS011;7392;52.078;11.650;2023-08-17T03:23:10;1.60;;;1.50;;
14611;SDS011;7392;52.078;11.650;2023-08-17T03:25:38;1.67;;;1.57;;
14611;SDS011;7392;52.078;11.650;2023-08-17T03:28:06;1.43;;;1.33;;
14611;SDS011;7392;52.078;11.650;2023-08-17T03:30:34;1.70;;;1.60;;
14611;SDS011;7392;52.078;11.650;2023-08-17T03:33:02;1.80;;;1.70;;
14611;SDS011;7392;52.078;11.650;2023-08-17T03:35:31;1.50;;;1.40;;
14611;SDS011;7392;52.078;11.650;2023-08-17T03:38:00;2.50;;;1.60;;
14611;SDS011;7392;52.078;11.650;2023-08-17T03:40:28;1.43;;;1.33;;
14611;SDS011;7392;52.078;11.650;2023-08-17T03:42:56;1.73;;;1.50;;
14611;SDS011;7392;52.078;11.650;2023-08-17T03:45:23;1.90;;;1.80;;
14611;SDS011;7392;52.078;11.650;2023-08-17T03:47:51;1.60;;;1.40;;
14611;SDS011;7392;52.078;11.650;2023-08-17T03:50:21;1.50;;;1.40;;
14611;SDS011;7392;52.078;11.650;2023-08-17T03:52:48;1.33;;;1.23;;
14611;SDS011;7392;52.078;11.650;2023-08-17T03:55:18;1.47;;;1.30;;
14611;SDS011;7392;52.078;11.650;2023-08-17T03:57:48;1.50;;;1.40;;
14611;SDS011;7392;52.078;11.650;2023-08-17T04:00:16;1.60;;;1.50;;
14611;SDS011;7392;52.078;11.650;2023-08-17T04:02:44;1.63;;;1.53;;
14611;SDS011;7392;52.078;11.650;2023-08-17T04:05:16;2.23;;;1.70;;
14611;SDS011;7392;52.078;11.650;2023-08-17T04:07:44;1.87;;;1.63;;
14611;SDS011;7392;52.078;11.650;2023-08-17T04:10:13;2.20;;;2.00;;
14611;SDS011;7392;52.078;11.650;2023-08-17T04:12:43;2.53;;;2.33;;
14611;SDS011;7392;52.078;11.650;2023-08-17T04:15:13;2.17;;;1.97;;
14611;SDS011;7392;52.078;11.650;2023-08-17T04:17:41;2.80;;;2.50;;
14611;SDS011;7392;52.078;11.650;2023-08-17T04:20:09;2.83;;;2.63;;
14611;SDS011;7392;52.078;11.650;2023-08-17T04:22:38;2.90;;;2.63;;
14611;SDS011;7392;52.078;11.650;2023-08-17T04:25:06;3.13;;;2.80;;
14611;SDS011;7392;52.078;11.650;2023-08-17T04:27:35;3.00;;;2.60;;
14611;SDS011;7392;52.078;11.650;2023-08-17T04:30:05;3.03;;;2.47;;
14611;SDS011;7392;52.078;11.650;2023-08-17T04:32:43;2.47;;;2.00;;
14611;SDS011;7392;52.078;11.650;2023-08-17T04:35:17;2.33;;;2.13;;
14611;SDS011;7392;52.078;11.650;2023-08-17T04:37:45;2.50;;;2.30;;
14611;SDS011;7392;52.078;11.650;2023-08-17T04:40:13;2.30;;;2.07;;
14611;SDS011;7392;52.078;11.650;2023-08-17T04:42:42;2.20;;;2.00;;
14611;SDS011;7392;52.078;11.650;2023-08-17T04:45:11;2.10;;;1.90;;
14611;SDS011;7392;52.078;11.650;2023-08-17T04:47:42;2.20;;;2.00;;
14611;SDS011;7392;52.078;11.650;2023-08-17T04:50:11;2.00;;;1.80;;
14611;SDS011;7392;52.078;11.650;2023-08-17T04:52:43;2.27;;;2.03;;
14611;SDS011;7392;52.078;11.650;2023-08-17T04:55:10;2.10;;;1.90;;
14611;SDS011;7392;52.078;11.650;2023-08-17T04:57:43;2.20;;;1.90;;
14611;SDS011;7392;52.078;11.650;2023-08-17T05:00:15;3.03;;;1.83;;
14611;SDS011;7392;52.078;11.650;2023-08-17T05:02:43;1.90;;;1.80;;
14611;SDS011;7392;52.078;11.650;2023-08-17T05:05:12;2.17;;;1.97;;
14611;SDS011;7392;52.078;11.650;2023-08-17T05:07:40;1.90;;;1.80;;
14611;SDS011;7392;52.078;11.650;2023-08-17T05:10:09;1.60;;;1.50;;
14611;SDS011;7392;52.078;11.650;2023-08-17T05:12:38;2.30;;;1.90;;
14611;SDS011;7392;52.078;11.650;2023-08-17T05:15:06;2.87;;;2.13;;
14611;SDS011;7392;52.078;11.650;2023-08-17T05:17:39;1.90;;;1.80;;
14611;SDS011;7392;52.078;11.650;2023-08-17T05:20:10;1.80;;;1.63;;
14611;SDS011;7392;52.078;11.650;2023-08-17T05:22:39;2.23;;;2.00;;
14611;SDS011;7392;52.078;11.650;2023-08-17T05:25:07;1.80;;;1.70;;
14611;SDS011;7392;52.078;11.650;2023-08-17T05:27:36;1.73;;;1.60;;
14611;SDS011;7392;52.078;11.650;2023-08-17T05:30:06;1.80;;;1.70;;
14611;SDS011;7392;52.078;11.650;2023-08-17T05:32:34;3.03;;;2.10;;
14611;SDS011;7392;52.078;11.650;2023-08-17T05:35:04;1.87;;;1.67;;
14611;SDS011;7392;52.078;11.650;2023-08-17T05:37:32;3.13;;;1.60;;
14611;SDS011;7392;52.078;11.650;2023-08-17T05:40:01;2.07;;;1.87;;
14611;SDS011;7392;52.078;11.650;2023-08-17T05:42:28;1.63;;;1.53;;
14611;SDS011;7392;52.078;11.650;2023-08-17T05:44:56;1.80;;;1.70;;
14611;SDS011;7392;52.078;11.650;2023-08-17T05:47:24;1.70;;;1.60;;
14611;SDS011;7392;52.078;11.650;2023-08-17T05:49:53;1.80;;;1.70;;
14611;SDS011;7392;52.078;11.650;2023-08-17T05:52:22;1.90;;;1.70;;
14611;SDS011;7392;52.078;11.650;2023-08-17T05:54:49;1.80;;;1.70;;
14611;SDS011;7392;52.078;11.650;2023-08-17T05:57:17;1.90;;;1.70;;
14611;SDS011;7392;52.078;11.650;2023-08-17T05:59:45;1.97;;;1.77;;
14611;SDS011;7392;52.078;11.650;2023-08-17T06:02:12;1.60;;;1.50;;
14611;SDS011;7392;52.078;11.650;2023-08-17T06:04:40;1.70;;;1.60;;
14611;SDS011;7392;52.078;11.650;2023-08-17T06:07:08;1.73;;;1.63;;
14611;SDS011;7392;52.078;11.650;2023-08-17T06:09:40;2.00;;;1.70;;
14611;SDS011;7392;52.078;11.650;2023-08-17T06:12:08;1.80;;;1.70;;
14611;SDS011;7392;52.078;11.650;2023-08-17T06:14:36;1.80;;;1.70;;
14611;SDS011;7392;52.078;11.650;2023-08-17T06:17:03;1.80;;;1.70;;
14611;SDS011;7392;52.078;11.650;2023-08-17T06:19:31;1.90;;;1.70;;
14611;SDS011;7392;52.078;11.650;2023-08-17T06:21:59;1.60;;;1.50;;
14611;SDS011;7392;52.078;11.650;2023-08-17T06:24:27;1.67;;;1.57;;
14611;SDS011;7392;52.078;11.650;2023-08-17T06:26:56;1.70;;;1.60;;
14611;SDS011;7392;52.078;11.650;2023-08-17T06:29:24;1.43;;;1.33;;
14611;SDS011;7392;52.078;11.650;2023-08-17T06:31:52;1.50;;;1.40;;
14611;SDS011;7392;52.078;11.650;2023-08-17T06:34:21;1.57;;;1.47;;
14611;SDS011;7392;52.078;11.650;2023-08-17T06:36:56;1.50;;;1.40;;
14611;SDS011;7392;52.078;11.650;2023-08-17T06:39:25;1.60;;;1.50;;
14611;SDS011;7392;52.078;11.650;2023-08-17T06:41:53;1.47;;;1.37;;
14611;SDS011;7392;52.078;11.650;2023-08-17T06:44:23;1.50;;;1.40;;
14611;SDS011;7392;52.078;11.650;2023-08-17T06:46:50;1.53;;;1.40;;
14611;SDS011;7392;52.078;11.650;2023-08-17T06:49:18;1.50;;;1.40;;
14611;SDS011;7392;52.078;11.650;2023-08-17T06:51:46;1.53;;;1.43;;
14611;SDS011;7392;52.078;11.650;2023-08-17T06:54:14;1.60;;;1.50;;
14611;SDS011;7392;52.078;11.650;2023-08-17T06:56:41;1.40;;;1.30;;
14611;SDS011;7392;52.078;11.650;2023-08-17T06:59:09;1.40;;;1.30;;
14611;SDS011;7392;52.078;11.650;2023-08-17T07:01:38;1.33;;;1.23;;
14611;SDS011;7392;52.078;11.650;2023-08-17T07:04:06;1.67;;;1.57;;
14611;SDS011;7392;52.078;11.650;2023-08-17T07:06:34;1.70;;;1.60;;
14611;SDS011;7392;52.078;11.650;2023-08-17T07:09:02;1.93;;;1.73;;
14611;SDS011;7392;52.078;11.650;2023-08-17T07:11:31;2.00;;;1.80;;
14611;SDS011;7392;52.078;11.650;2023-08-17T07:13:59;1.97;;;1.87;;
14611;SDS011;7392;52.078;11.650;2023-08-17T07:16:26;2.50;;;2.27;;
14611;SDS011;7392;52.078;11.650;2023-08-17T07:18:55;2.30;;;2.10;;
14611;SDS011;7392;52.078;11.650;2023-08-17T07:21:23;2.20;;;2.10;;
14611;SDS011;7392;52.078;11.650;2023-08-17T07:23:53;2.60;;;2.30;;
14611;SDS011;7392;52.078;11.650;2023-08-17T07:26:22;2.40;;;2.20;;
14611;SDS011;7392;52.078;11.650;2023-08-17T07:28:50;2.10;;;2.00;;
14611;SDS011;7392;52.078;11.650;2023-08-17T07:31:18;5.13;;;2.13;;
14611;SDS011;7392;52.078;11.650;2023-08-17T07:33:46;1.80;;;1.70;;
14611;SDS011;7392;52.078;11.650;2023-08-17T07:36:15;2.10;;;1.73;;
14611;SDS011;7392;52.078;11.650;2023-08-17T07:38:42;1.93;;;1.80;;
14611;SDS011;7392;52.078;11.650;2023-08-17T07:41:10;1.60;;;1.50;;
14611;SDS011;7392;52.078;11.650;2023-08-17T07:43:38;1.70;;;1.60;;
14611;SDS011;7392;52.078;11.650;2023-08-17T07:46:06;1.80;;;1.70;;
14611;SDS011;7392;52.078;11.650;2023-08-17T07:48:33;1.80;;;1.70;;
14611;SDS011;7392;52.078;11.650;2023-08-17T07:51:01;1.70;;;1.60;;
14611;SDS011;7392;52.078;11.650;2023-08-17T07:53:30;2.20;;;1.60;;
14611;SDS011;7392;52.078;11.650;2023-08-17T07:55:58;1.90;;;1.80;;
14611;SDS011;7392;52.078;11.650;2023-08-17T07:58:26;1.93;;;1.60;;
14611;SDS011;7392;52.078;11.650;2023-08-17T08:00:54;1.80;;;1.40;;
14611;SDS011;7392;52.078;11.650;2023-08-17T08:03:21;1.80;;;1.70;;
14611;SDS011;7392;52.078;11.650;2023-08-17T08:05:49;1.80;;;1.70;;
14611;SDS011;7392;52.078;11.650;2023-08-17T08:08:17;2.10;;;1.93;;
14611;SDS011;7392;52.078;11.650;2023-08-17T08:10:47;1.57;;;1.47;;
14611;SDS011;7392;52.078;11.650;2023-08-17T08:13:15;1.53;;;1.43;;
14611;SDS011;7392;52.078;11.650;2023-08-17T08:15:43;1.73;;;1.63;;
14611;SDS011;7392;52.078;11.650;2023-08-17T08:18:11;1.73;;;1.63;;
14611;SDS011;7392;52.078;11.650;2023-08-17T08:20:39;2.50;;;1.70;;
14611;SDS011;7392;52.078;11.650;2023-08-17T08:23:06;1.70;;;1.60;;
14611;SDS011;7392;52.078;11.650;2023-08-17T08:25:34;1.90;;;1.80;;
14611;SDS011;7392;52.078;11.650;2023-08-17T08:28:03;1.60;;;1.50;;
14611;SDS011;7392;52.078;11.650;2023-08-17T08:30:31;1.60;;;1.50;;
14611;SDS011;7392;52.078;11.650;2023-08-17T08:32:59;1.70;;;1.60;;
14611;SDS011;7392;52.078;11.650;2023-08-17T08:35:27;1.50;;;1.40;;
14611;SDS011;7392;52.078;11.650;2023-08-17T08:37:55;1.97;;;1.77;;
14611;SDS011;7392;52.078;11.650;2023-08-17T08:40:26;1.60;;;1.50;;
14611;SDS011;7392;52.078;11.650;2023-08-17T08:42:55;1.73;;;1.63;;
14611;SDS011;7392;52.078;11.650;2023-08-17T08:45:25;1.60;;;1.50;;
14611;SDS011;7392;52.078;11.650;2023-08-17T08:47:57;1.70;;;1.60;;
14611;SDS011;7392;52.078;11.650;2023-08-17T08:50:27;1.90;;;1.63;;
14611;SDS011;7392;52.078;11.650;2023-08-17T08:53:00;1.80;;;1.70;;
14611;SDS011;7392;52.078;11.650;2023-08-17T08:55:29;2.00;;;1.90;;
14611;SDS011;7392;52.078;11.650;2023-08-17T08:58:03;1.80;;;1.70;;
14611;SDS011;7392;52.078;11.650;2023-08-17T09:00:33;1.77;;;1.67;;
14611;SDS011;7392;52.078;11.650;2023-08-17T09:03:01;1.80;;;1.70;;
14611;SDS011;7392;52.078;11.650;2023-08-17T09:05:31;1.80;;;1.70;;
14611;SDS011;7392;52.078;11.650;2023-08-17T09:08:00;1.80;;;1.60;;
14611;SDS011;7392;52.078;11.650;2023-08-17T09:10:29;1.60;;;1.30;;
14611;SDS011;7392;52.078;11.650;2023-08-17T09:13:03;1.60;;;1.50;;
14611;SDS011;7392;52.078;11.650;2023-08-17T09:15:32;1.40;;;1.30;;
14611;SDS011;7392;52.078;11.650;2023-08-17T09:18:00;1.30;;;1.20;;
14611;SDS011;7392;52.078;11.650;2023-08-17T09:20:35;1.33;;;1.23;;
14611;SDS011;7392;52.078;11.650;2023-08-17T09:23:04;1.60;;;1.50;;
14611;SDS011;7392;52.078;11.650;2023-08-17T09:25:37;1.43;;;1.33;;
14611;SDS011;7392;52.078;11.650;2023-08-17T09:28:06;1.50;;;1.40;;
14611;SDS011;7392;52.078;11.650;2023-08-17T09:30:50;1.67;;;1.50;;
14611;SDS011;7392;52.078;11.650;2023-08-17T09:33:21;1.83;;;1.73;;
14611;SDS011;7392;52.078;11.650;2023-08-17T09:35:50;1.50;;;1.40;;
14611;SDS011;7392;52.078;11.650;2023-08-17T09:38:24;1.60;;;1.50;;
14611;SDS011;7392;52.078;11.650;2023-08-17T09:40:53;1.70;;;1.60;;
14611;SDS011;7392;52.078;11.650;2023-08-17T09:43:21;1.40;;;1.30;;
14611;SDS011;7392;52.078;11.650;2023-08-17T09:45:52;1.60;;;1.50;;
14611;SDS011;7392;52.078;11.650;2023-08-17T09:48:21;1.40;;;1.30;;
14611;SDS011;7392;52.078;11.650;2023-08-17T09:50:49;1.40;;;1.30;;
14611;SDS011;7392;52.078;11.650;2023-08-17T09:53:17;1.13;;;1.10;;
14611;SDS011;7392;52.078;11.650;2023-08-17T09:55:46;1.30;;;1.20;;
14611;SDS011;7392;52.078;11.650;2023-08-17T09:58:14;1.33;;;1.23;;
14611;SDS011;7392;52.078;11.650;2023-08-17T10:00:43;1.33;;;1.23;;
14611;SDS011;7392;52.078;11.650;2023-08-17T10:03:17;1.43;;;1.33;;
14611;SDS011;7392;52.078;11.650;2023-08-17T10:05:48;1.60;;;1.23;;
14611;SDS011;7392;52.078;11.650;2023-08-17T10:08:22;1.20;;;1.10;;
14611;SDS011;7392;52.078;11.650;2023-08-17T10:10:50;1.30;;;1.10;;
14611;SDS011;7392;52.078;11.650;2023-08-17T10:13:25;1.50;;;1.40;;
14611;SDS011;7392;52.078;11.650;2023-08-17T10:16:02;1.52;;;1.30;;
14611;SDS011;7392;52.078;11.650;2023-08-17T10:18:40;1.20;;;1.10;;
14611;SDS011;7392;52.078;11.650;2023-08-17T10:21:13;1.30;;;1.20;;
14611;SDS011;7392;52.078;11.650;2023-08-17T10:23:48;1.40;;;1.30;;
14611;SDS011;7392;52.078;11.650;2023-08-17T10:26:20;1.57;;;1.47;;
14611;SDS011;7392;52.078;11.650;2023-08-17T10:28:50;1.37;;;1.27;;
14611;SDS011;7392;52.078;11.650;2023-08-17T10:31:20;1.57;;;1.40;;
14611;SDS011;7392;52.078;11.650;2023-08-17T10:33:52;1.33;;;1.23;;
14611;SDS011;7392;52.078;11.650;2023-08-17T10:36:22;1.30;;;1.20;;
14611;SDS011;7392;52.078;11.650;2023-08-17T10:41:46;1.30;;;1.20;;
14611;SDS011;7392;52.078;11.650;2023-08-17T10:44:15;1.60;;;1.50;;
14611;SDS011;7392;52.078;11.650;2023-08-17T10:46:44;1.50;;;1.40;;
14611;SDS011;7392;52.078;11.650;2023-08-17T10:49:27;1.70;;;1.60;;
14611;SDS011;7392;52.078;11.650;2023-08-17T10:52:02;1.30;;;1.20;;
14611;SDS011;7392;52.078;11.650;2023-08-17T10:54:37;1.30;;;1.20;;
14611;SDS011;7392;52.078;11.650;2023-08-17T11:02:53;1.23;;;1.13;;
14611;SDS011;7392;52.078;11.650;2023-08-17T11:05:40;1.67;;;1.40;;
14611;SDS011;7392;52.078;11.650;2023-08-17T11:08:09;1.40;;;1.30;;
14611;SDS011;7392;52.078;11.650;2023-08-17T11:10:40;1.13;;;1.10;;
14611;SDS011;7392;52.078;11.650;2023-08-17T11:13:13;0.90;;;0.90;;
14611;SDS011;7392;52.078;11.650;2023-08-17T11:15:41;1.25;;;1.15;;
14611;SDS011;7392;52.078;11.650;2023-08-17T11:18:11;1.00;;;1.00;;
14611;SDS011;7392;52.078;11.650;2023-08-17T11:20:41;1.30;;;1.20;;
14611;SDS011;7392;52.078;11.650;2023-08-17T11:23:10;1.40;;;1.30;;
14611;SDS011;7392;52.078;11.650;2023-08-17T11:28:33;1.30;;;1.20;;
14611;SDS011;7392;52.078;11.650;2023-08-17T11:31:09;1.40;;;1.30;;
14611;SDS011;7392;52.078;11.650;2023-08-17T11:33:38;1.37;;;1.27;;
14611;SDS011;7392;52.078;11.650;2023-08-17T11:36:09;1.30;;;1.20;;
14611;SDS011;7392;52.078;11.650;2023-08-17T11:38:37;1.60;;;1.50;;
14611;SDS011;7392;52.078;11.650;2023-08-17T11:41:07;1.50;;;1.40;;
14611;SDS011;7392;52.078;11.650;2023-08-17T11:43:36;1.48;;;1.38;;
14611;SDS011;7392;52.078;11.650;2023-08-17T11:46:05;1.70;;;1.60;;
14611;SDS011;7392;52.078;11.650;2023-08-17T11:48:33;1.58;;;1.48;;
14611;SDS011;7392;52.078;11.650;2023-08-17T11:51:02;1.70;;;1.60;;
14611;SDS011;7392;52.078;11.650;2023-08-17T11:53:35;1.90;;;1.80;;
14611;SDS011;7392;52.078;11.650;2023-08-17T11:56:06;2.30;;;2.10;;
14611;SDS011;7392;52.078;11.650;2023-08-17T11:58:40;2.00;;;1.90;;
14611;SDS011;7392;52.078;11.650;2023-08-17T12:01:09;2.05;;;1.95;;
14611;SDS011;7392;52.078;11.650;2023-08-17T12:03:39;1.50;;;1.40;;
14611;SDS011;7392;52.078;11.650;2023-08-17T12:06:08;1.80;;;1.70;;
14611;SDS011;7392;52.078;11.650;2023-08-17T12:08:38;1.75;;;1.65;;
14611;SDS011;7392;52.078;11.650;2023-08-17T12:11:05;1.67;;;1.58;;
14611;SDS011;7392;52.078;11.650;2023-08-17T12:13:34;1.80;;;1.67;;
14611;SDS011;7392;52.078;11.650;2023-08-17T12:16:02;1.80;;;1.70;;
14611;SDS011;7392;52.078;11.650;2023-08-17T12:18:32;2.17;;;2.00;;
14611;SDS011;7392;52.078;11.650;2023-08-17T12:21:00;1.90;;;1.80;;
14611;SDS011;7392;52.078;11.650;2023-08-17T12:23:28;2.10;;;1.90;;
14611;SDS011;7392;52.078;11.650;2023-08-17T12:25:57;1.83;;;1.73;;
14611;SDS011;7392;52.078;11.650;2023-08-17T12:28:25;1.92;;;1.83;;
14611;SDS011;7392;52.078;11.650;2023-08-17T12:30:57;1.85;;;1.75;;
14611;SDS011;7392;52.078;11.650;2023-08-17T12:33:26;1.73;;;1.63;;
14611;SDS011;7392;52.078;11.650;2023-08-17T12:35:54;1.70;;;1.60;;
14611;SDS011;7392;52.078;11.650;2023-08-17T12:38:23;1.98;;;1.50;;
14611;SDS011;7392;52.078;11.650;2023-08-17T12:40:52;1.60;;;1.50;;
14611;SDS011;7392;52.078;11.650;2023-08-17T12:43:21;1.80;;;1.70;;
14611;SDS011;7392;52.078;11.650;2023-08-17T12:45:49;1.90;;;1.80;;
14611;SDS011;7392;52.078;11.650;2023-08-17T12:48:17;1.90;;;1.80;;
14611;SDS011;7392;52.078;11.650;2023-08-17T12:50:45;1.95;;;1.85;;
14611;SDS011;7392;52.078;11.650;2023-08-17T12:53:13;1.85;;;1.75;;
14611;SDS011;7392;52.078;11.650;2023-08-17T12:55:41;1.80;;;1.70;;
14611;SDS011;7392;52.078;11.650;2023-08-17T12:58:09;1.92;;;1.83;;
14611;SDS011;7392;52.078;11.650;2023-08-17T13:00:38;1.65;;;1.55;;
14611;SDS011;7392;52.078;11.650;2023-08-17T13:03:07;1.70;;;1.60;;
14611;SDS011;7392;52.078;11.650;2023-08-17T13:05:50;1.90;;;1.80;;
14611;SDS011;7392;52.078;11.650;2023-08-17T13:08:32;1.80;;;1.70;;
14611;SDS011;7392;52.078;11.650;2023-08-17T13:11:00;1.90;;;1.80;;
14611;SDS011;7392;52.078;11.650;2023-08-17T13:13:28;2.15;;;2.05;;
14611;SDS011;7392;52.078;11.650;2023-08-17T13:15:57;2.03;;;1.92;;
14611;SDS011;7392;52.078;11.650;2023-08-17T13:18:25;2.35;;;2.15;;
14611;SDS011;7392;52.078;11.650;2023-08-17T13:20:55;1.88;;;1.77;;
14611;SDS011;7392;52.078;11.650;2023-08-17T13:23:22;1.90;;;1.80;;
14611;SDS011;7392;52.078;11.650;2023-08-17T13:25:50;1.90;;;1.80;;
14611;SDS011;7392;52.078;11.650;2023-08-17T13:28:18;2.00;;;1.88;;
14611;SDS011;7392;52.078;11.650;2023-08-17T13:30:46;1.90;;;1.80;;
14611;SDS011;7392;52.078;11.650;2023-08-17T13:33:15;2.03;;;1.85;;
14611;SDS011;7392;52.078;11.650;2023-08-17T13:35:43;1.90;;;1.80;;
14611;SDS011;7392;52.078;11.650;2023-08-17T13:38:12;2.35;;;2.15;;
14611;SDS011;7392;52.078;11.650;2023-08-17T13:40:39;1.70;;;1.60;;
14611;SDS011;7392;52.078;11.650;2023-08-17T13:43:07;2.40;;;2.20;;
14611;SDS011;7392;52.078;11.650;2023-08-17T13:45:38;2.33;;;2.10;;
14611;SDS011;7392;52.078;11.650;2023-08-17T13:48:06;2.15;;;2.05;;
14611;SDS011;7392;52.078;11.650;2023-08-17T13:50:38;2.15;;;2.00;;
14611;SDS011;7392;52.078;11.650;2023-08-17T13:53:06;1.92;;;1.83;;
14611;SDS011;7392;52.078;11.650;2023-08-17T13:55:34;2.30;;;2.20;;
14611;SDS011;7392;52.078;11.650;2023-08-17T13:58:02;2.10;;;2.00;;
14611;SDS011;7392;52.078;11.650;2023-08-17T14:00:30;2.40;;;2.30;;
14611;SDS011;7392;52.078;11.650;2023-08-17T14:02:58;2.15;;;2.05;;
14611;SDS011;7392;52.078;11.650;2023-08-17T14:05:27;2.47;;;2.28;;
14611;SDS011;7392;52.078;11.650;2023-08-17T14:07:56;2.55;;;2.35;;
14611;SDS011;7392;52.078;11.650;2023-08-17T14:10:24;2.65;;;2.45;;
14611;SDS011;7392;52.078;11.650;2023-08-17T14:13:05;2.50;;;2.38;;
14611;SDS011;7392;52.078;11.650;2023-08-17T14:15:33;3.20;;;3.00;;
14611;SDS011;7392;52.078;11.650;2023-08-17T14:18:01;3.65;;;3.05;;
14611;SDS011;7392;52.078;11.650;2023-08-17T14:20:30;3.50;;;3.20;;
14611;SDS011;7392;52.078;11.650;2023-08-17T14:22:59;3.08;;;2.88;;
14611;SDS011;7392;52.078;11.650;2023-08-17T14:25:27;3.03;;;2.83;;
14611;SDS011;7392;52.078;11.650;2023-08-17T14:27:56;2.88;;;2.67;;
14611;SDS011;7392;52.078;11.650;2023-08-17T14:30:25;2.70;;;2.50;;
14611;SDS011;7392;52.078;11.650;2023-08-17T14:32:53;2.83;;;2.63;;
14611;SDS011;7392;52.078;11.650;2023-08-17T14:35:26;3.00;;;2.80;;
14611;SDS011;7392;52.078;11.650;2023-08-17T14:37:55;2.65;;;2.45;;
14611;SDS011;7392;52.078;11.650;2023-08-17T14:40:26;2.70;;;2.50;;
14611;SDS011;7392;52.078;11.650;2023-08-17T14:42:54;2.80;;;2.60;;
14611;SDS011;7392;52.078;11.650;2023-08-17T14:45:23;2.97;;;2.78;;
14611;SDS011;7392;52.078;11.650;2023-08-17T14:47:51;3.50;;;3.20;;
14611;SDS011;7392;52.078;11.650;2023-08-17T14:50:19;3.13;;;2.92;;
14611;SDS011;7392;52.078;11.650;2023-08-17T14:52:47;3.72;;;2.67;;
14611;SDS011;7392;52.078;11.650;2023-08-17T14:55:14;2.90;;;2.70;;
14611;SDS011;7392;52.078;11.650;2023-08-17T14:57:44;3.10;;;2.83;;
14611;SDS011;7392;52.078;11.650;2023-08-17T15:00:12;3.22;;;3.03;;
14611;SDS011;7392;52.078;11.650;2023-08-17T15:02:43;3.70;;;3.45;;
14611;SDS011;7392;52.078;11.650;2023-08-17T15:05:11;3.63;;;3.33;;
14611;SDS011;7392;52.078;11.650;2023-08-17T15:07:39;3.15;;;2.95;;
14611;SDS011;7392;52.078;11.650;2023-08-17T15:10:07;3.72;;;3.42;;
14611;SDS011;7392;52.078;11.650;2023-08-17T15:12:35;3.63;;;3.33;;